createdAt,value
2019-01-14T06:03:19.293Z,3.40
2019-01-14T06:06:31.887Z,3.07
2019-01-14T06:09:25.249Z,3.27
2019-01-14T06:12:18.544Z,4.13
2019-01-14T06:15:14.899Z,8.30
2019-01-14T06:18:07.548Z,6.60
2019-01-14T06:21:01.013Z,6.57
2019-01-14T06:23:54.267Z,5.30
2019-01-14T06:26:47.400Z,4.70
2019-01-14T06:29:40.369Z,3.20
2019-01-14T06:32:33.694Z,3.47
2019-01-14T06:35:28.503Z,4.47
2019-01-14T14:54:48.727Z,9.97
2019-01-14T14:57:42.022Z,6.30
2019-01-14T15:00:34.789Z,8.43
2019-01-14T15:03:27.795Z,6.23
2019-01-14T15:06:21.095Z,6.83
2019-01-14T15:09:14.128Z,8.13
2019-01-14T15:12:07.015Z,7.00
2019-01-14T15:15:00.594Z,11.20
2019-01-14T15:17:53.858Z,8.13
2019-01-14T15:20:47.275Z,8.43
2019-01-14T15:23:40.532Z,9.50
2019-01-14T15:26:34.091Z,6.17
2019-01-14T15:29:27.055Z,5.90
2019-01-14T15:32:20.290Z,7.23
2019-01-14T15:35:13.266Z,10.57
2019-01-14T15:38:06.470Z,15.17
2019-01-14T15:40:59.235Z,16.13
2019-01-14T15:43:52.644Z,16.80
2019-01-14T15:46:45.688Z,13.57
2019-01-14T15:49:38.764Z,13.03
2019-01-14T15:52:31.516Z,13.67
2019-01-14T15:55:25.890Z,12.13
2019-01-14T15:58:55.827Z,11.33
2019-01-14T16:01:49.093Z,13.47
2019-01-14T16:04:42.307Z,12.63
2019-01-14T16:07:35.667Z,11.67
2019-01-14T16:10:29.224Z,10.77
2019-01-14T16:13:22.036Z,10.87
2019-01-14T16:16:15.369Z,11.30
2019-01-14T16:19:08.623Z,13.23
2019-01-14T16:22:01.860Z,9.13
2019-01-14T16:24:55.049Z,10.43
2019-01-14T16:27:48.412Z,10.13
2019-01-14T16:32:53.444Z,8.90
2019-01-14T16:35:46.248Z,9.13
2019-01-14T16:38:39.442Z,9.07
2019-01-14T16:41:32.706Z,9.30
2019-01-14T16:44:25.682Z,8.53
2019-01-14T16:47:18.611Z,8.63
2019-01-14T16:50:14.114Z,7.67
2019-01-14T16:53:06.818Z,11.53
2019-01-14T16:56:00.473Z,8.03
2019-01-14T16:58:53.465Z,8.47
2019-01-14T17:01:46.040Z,8.03
2019-01-14T17:04:38.822Z,9.53
2019-01-14T17:07:32.071Z,9.30
2019-01-14T17:10:25.513Z,8.57
2019-01-14T17:13:18.490Z,7.13
2019-01-14T17:16:11.303Z,8.33
2019-01-14T17:19:04.618Z,8.33
2019-01-14T17:21:57.845Z,8.97
2019-01-14T17:24:50.931Z,7.00
2019-01-14T17:27:45.199Z,7.37
2019-01-14T17:30:38.815Z,6.93
2019-01-14T17:33:32.301Z,6.80
2019-01-14T17:36:25.841Z,7.77
2019-01-14T17:39:19.069Z,8.60
2019-01-14T17:42:12.565Z,6.47
2019-01-14T17:45:09.179Z,7.50
2019-01-14T17:48:02.071Z,7.17
2019-01-14T17:50:55.304Z,6.93
2019-01-14T17:53:47.758Z,6.83
2019-01-14T17:56:40.650Z,7.00
2019-01-14T17:59:35.393Z,6.77
2019-01-14T18:02:28.688Z,5.83
2019-01-14T18:05:21.866Z,5.93
2019-01-14T18:08:14.898Z,6.53
2019-01-14T18:11:07.610Z,6.03
2019-01-14T18:14:00.889Z,6.30
2019-01-14T18:16:54.131Z,5.07
2019-01-14T18:19:47.040Z,5.97
2019-01-14T18:22:40.275Z,5.67
2019-01-14T18:25:33.472Z,5.60
2019-01-14T18:28:26.193Z,8.97
2019-01-14T18:31:19.298Z,4.87
2019-01-14T18:34:12.795Z,10.93
2019-01-14T18:37:06.036Z,13.70
2019-01-14T18:39:59.238Z,18.97
2019-01-14T18:42:52.366Z,19.70
2019-01-14T18:45:45.440Z,18.00
2019-01-14T18:48:38.337Z,15.20
2019-01-14T18:51:31.362Z,13.63
2019-01-14T18:54:23.839Z,12.03
2019-01-14T18:57:17.169Z,12.60
2019-01-14T19:00:15.447Z,11.63
2019-01-14T19:03:08.922Z,9.53
2019-01-14T19:06:01.678Z,11.43
2019-01-14T19:08:55.018Z,9.73
2019-01-14T19:11:48.422Z,10.43
2019-01-14T19:14:40.878Z,8.80
2019-01-14T19:17:53.571Z,7.13
2019-01-14T19:20:46.647Z,10.17
2019-01-14T19:23:39.998Z,7.83
2019-01-14T19:26:33.461Z,7.77
2019-01-14T19:29:27.014Z,7.87
2019-01-14T19:32:20.105Z,7.53
2019-01-14T19:35:12.797Z,8.77
2019-01-14T19:38:06.032Z,8.10
2019-01-14T19:41:02.042Z,6.37
2019-01-14T19:43:53.570Z,7.73
2019-01-14T19:46:46.555Z,8.20
2019-01-14T19:49:39.519Z,6.57
2019-01-14T19:52:32.776Z,8.10
2019-01-14T19:55:26.226Z,8.10
2019-01-14T19:58:19.705Z,8.50
2019-01-14T20:01:12.470Z,8.30
2019-01-14T20:04:05.477Z,6.90
2019-01-14T20:06:58.680Z,6.77
2019-01-14T20:09:51.962Z,6.90
2019-01-14T20:12:45.306Z,7.23
2019-01-14T20:15:38.644Z,8.37
2019-01-14T20:18:31.917Z,7.17
2019-01-14T20:21:24.938Z,8.67
2019-01-14T20:24:17.991Z,6.47
2019-01-14T20:27:11.299Z,10.43
2019-01-14T20:30:08.044Z,7.00
2019-01-14T20:33:01.101Z,7.90
2019-01-14T20:35:55.765Z,7.33
2019-01-14T20:38:48.995Z,7.57
2019-01-14T20:41:42.277Z,7.67
2019-01-14T20:44:34.959Z,7.70
2019-01-14T20:47:28.183Z,8.23
2019-01-14T20:50:22.314Z,9.33
2019-01-14T20:53:15.633Z,8.27
2019-01-14T20:56:08.583Z,7.90
2019-01-14T20:59:01.884Z,8.27
2019-01-14T21:01:54.866Z,9.43
2019-01-14T21:04:48.013Z,9.77
2019-01-14T21:07:41.170Z,8.87
2019-01-14T21:10:34.469Z,9.57
2019-01-14T21:13:27.234Z,7.60
2019-01-14T21:16:20.427Z,9.83
2019-01-14T21:19:13.478Z,7.70
2019-01-14T21:22:06.398Z,7.40
2019-01-14T21:24:59.610Z,9.43
2019-01-14T21:27:53.135Z,9.43
2019-01-14T21:30:46.815Z,8.37
2019-01-14T21:33:40.290Z,7.90
2019-01-14T21:36:33.469Z,11.33
2019-01-14T21:39:26.325Z,8.90
2019-01-14T21:42:19.048Z,9.60
2019-01-14T21:45:14.109Z,8.90
2019-01-14T21:48:06.823Z,9.17
2019-01-14T21:51:00.392Z,8.20
2019-01-14T21:53:53.671Z,7.53
2019-01-14T21:56:46.724Z,8.40
2019-01-14T21:59:40.134Z,8.80
2019-01-14T22:02:33.553Z,8.63
2019-01-14T22:05:26.336Z,10.80
2019-01-14T22:08:19.300Z,8.10
2019-01-14T22:11:12.114Z,8.47
2019-01-14T22:14:05.284Z,8.23
2019-01-14T22:16:58.366Z,9.13
2019-01-14T22:19:51.333Z,9.27
2019-01-14T22:22:44.564Z,7.20
2019-01-14T22:25:37.791Z,7.93
2019-01-14T22:28:30.794Z,9.03
2019-01-14T22:31:23.698Z,8.87
2019-01-14T22:34:17.104Z,9.53
2019-01-14T22:37:10.670Z,7.77
2019-01-14T22:40:07.449Z,8.90
2019-01-14T22:43:00.288Z,9.50
2019-01-14T22:45:55.897Z,7.33
2019-01-14T22:48:48.604Z,7.80
2019-01-14T22:51:41.848Z,7.97
2019-01-14T22:54:35.075Z,8.83
2019-01-14T22:57:28.142Z,8.60
2019-01-14T23:00:47.216Z,8.57
2019-01-14T23:03:40.302Z,8.83
2019-01-14T23:06:33.797Z,7.80
2019-01-14T23:09:26.718Z,8.30
